createdAt,value
2023-03-29T00:00:49.675Z,4.94
2023-03-29T00:03:17.073Z,5.00
2023-03-29T00:05:44.720Z,5.12
2023-03-29T00:08:14.479Z,5.08
2023-03-29T00:10:42.296Z,5.06
2023-03-29T00:13:08.858Z,5.09
2023-03-29T00:15:35.685Z,4.98
2023-03-29T00:18:02.198Z,4.89
2023-03-29T00:20:28.918Z,4.88
2023-03-29T00:22:55.716Z,4.85
2023-03-29T00:25:22.349Z,4.90
2023-03-29T00:27:49.047Z,4.84
2023-03-29T00:30:16.599Z,4.91
2023-03-29T00:32:43.173Z,4.86
2023-03-29T00:35:10.960Z,4.83
2023-03-29T00:37:38.026Z,4.88
2023-03-29T00:40:10.737Z,4.86
2023-03-29T00:42:37.841Z,4.74
2023-03-29T00:45:12.101Z,4.95
2023-03-29T00:47:41.646Z,5.11
2023-03-29T00:50:16.527Z,4.94
2023-03-29T00:52:48.578Z,4.89
2023-03-29T00:55:19.296Z,4.85
2023-03-29T00:57:46.836Z,4.84
2023-03-29T01:00:21.024Z,4.98
2023-03-29T01:02:54.232Z,5.09
2023-03-29T01:05:31.130Z,5.10
2023-03-29T01:08:03.513Z,5.04
2023-03-29T01:10:41.152Z,5.07
2023-03-29T01:13:16.189Z,5.10
2023-03-29T01:15:45.308Z,4.89
2023-03-29T01:18:12.670Z,4.89
2023-03-29T01:20:44.996Z,4.77
2023-03-29T01:23:51.106Z,4.79
2023-03-29T01:26:30.828Z,4.74
2023-03-29T01:29:07.501Z,4.83
2023-03-29T01:31:38.938Z,4.84
2023-03-29T01:34:19.816Z,4.99
2023-03-29T01:36:54.787Z,5.05
2023-03-29T01:39:22.012Z,5.04
2023-03-29T01:41:59.941Z,5.08
2023-03-29T01:44:36.733Z,4.99
2023-03-29T01:47:29.829Z,5.08
2023-03-29T01:50:07.536Z,5.16
2023-03-29T01:52:46.866Z,5.12
2023-03-29T01:55:20.449Z,5.21
2023-03-29T01:57:48.650Z,5.18
2023-03-29T02:00:21.614Z,5.24
2023-03-29T02:02:49.146Z,5.23
2023-03-29T02:05:17.050Z,5.24
2023-03-29T02:07:46.036Z,5.25
2023-03-29T02:10:14.392Z,5.18
2023-03-29T02:12:41.380Z,5.09
2023-03-29T02:15:19.103Z,4.97
2023-03-29T02:17:47.673Z,5.00
2023-03-29T02:20:33.555Z,4.94
2023-03-29T02:23:24.381Z,4.92
2023-03-29T02:25:53.791Z,4.96
2023-03-29T02:28:22.483Z,4.89
2023-03-29T02:31:09.231Z,4.86
2023-03-29T02:33:39.113Z,4.88
2023-03-29T02:36:20.855Z,4.73
2023-03-29T02:38:47.548Z,4.78
2023-03-29T02:41:16.516Z,4.83
2023-03-29T02:43:46.154Z,4.85
2023-03-29T02:46:14.882Z,4.75
2023-03-29T02:48:42.637Z,4.66
2023-03-29T02:51:20.282Z,4.58
2023-03-29T02:54:05.336Z,4.55
2023-03-29T02:56:48.062Z,4.58
2023-03-29T02:59:17.741Z,4.62
2023-03-29T03:01:44.870Z,4.52
2023-03-29T03:04:12.324Z,4.63
2023-03-29T03:06:39.804Z,4.64
2023-03-29T03:09:06.652Z,4.65
2023-03-29T03:11:33.958Z,4.70
2023-03-29T03:14:00.909Z,4.72
2023-03-29T03:16:28.088Z,4.63
2023-03-29T03:18:55.737Z,4.74
2023-03-29T03:21:23.005Z,4.67
2023-03-29T03:23:49.767Z,4.66
2023-03-29T03:26:17.943Z,4.77
2023-03-29T03:28:45.685Z,4.77
2023-03-29T03:31:15.497Z,4.77
2023-03-29T03:33:41.955Z,4.84
2023-03-29T03:36:10.197Z,4.61
2023-03-29T03:38:38.537Z,4.55
2023-03-29T03:41:06.942Z,4.50
2023-03-29T03:43:33.912Z,4.48
2023-03-29T03:46:00.420Z,4.41
2023-03-29T03:48:27.881Z,4.38
2023-03-29T03:50:56.925Z,4.16
2023-03-29T03:53:25.187Z,4.33
2023-03-29T03:55:54.277Z,4.28
2023-03-29T03:58:20.720Z,4.32
2023-03-29T04:00:51.219Z,4.48
2023-03-29T04:03:18.294Z,4.60
2023-03-29T04:05:47.109Z,4.66
2023-03-29T04:08:14.791Z,4.67
2023-03-29T04:10:41.698Z,4.81
2023-03-29T04:13:08.278Z,4.85
2023-03-29T04:15:38.725Z,4.93
2023-03-29T04:18:07.401Z,4.98
2023-03-29T04:20:34.592Z,4.95
2023-03-29T04:23:01.546Z,5.11
2023-03-29T04:25:28.538Z,5.25
2023-03-29T04:27:54.982Z,5.08
2023-03-29T04:30:21.792Z,5.16
2023-03-29T04:32:48.894Z,5.13
2023-03-29T04:35:15.484Z,5.11
2023-03-29T04:37:42.086Z,5.23
2023-03-29T04:40:09.965Z,5.23
2023-03-29T04:42:37.715Z,5.25
2023-03-29T04:45:06.901Z,5.21
2023-03-29T04:47:36.168Z,5.30
2023-03-29T04:50:03.443Z,5.20
2023-03-29T04:52:33.038Z,5.32
2023-03-29T04:55:01.499Z,5.34
2023-03-29T04:57:28.648Z,5.36
2023-03-29T04:59:55.738Z,5.30
2023-03-29T05:02:22.420Z,5.40
2023-03-29T05:04:49.135Z,5.43
2023-03-29T05:07:17.965Z,5.21
2023-03-29T05:09:44.673Z,5.26
2023-03-29T05:12:11.143Z,5.28
2023-03-29T05:14:37.712Z,5.29
2023-03-29T05:17:05.165Z,5.35
2023-03-29T05:19:32.010Z,5.55
2023-03-29T05:21:59.047Z,5.34
2023-03-29T05:24:25.773Z,5.23
2023-03-29T05:26:52.329Z,5.24
2023-03-29T05:29:19.191Z,5.34
2023-03-29T05:31:47.122Z,5.41
2023-03-29T05:34:13.773Z,5.68
2023-03-29T05:36:40.221Z,5.74
2023-03-29T05:39:10.823Z,5.84
2023-03-29T05:41:37.950Z,5.95
2023-03-29T05:44:04.471Z,5.97
2023-03-29T05:46:30.889Z,5.85
2023-03-29T05:48:57.521Z,5.81
2023-03-29T05:51:24.763Z,5.76
2023-03-29T05:53:52.067Z,5.89
2023-03-29T05:56:19.117Z,6.05
2023-03-29T05:58:49.413Z,6.07
2023-03-29T06:01:17.821Z,6.10
2023-03-29T06:03:46.213Z,6.23
2023-03-29T06:06:16.568Z,6.27
2023-03-29T06:08:43.738Z,6.38
2023-03-29T06:11:12.099Z,6.60
2023-03-29T06:13:38.957Z,6.50
2023-03-29T06:16:06.626Z,6.42
2023-03-29T06:18:33.642Z,6.47
2023-03-29T06:21:02.828Z,6.80
2023-03-29T06:23:30.668Z,6.86
2023-03-29T06:25:58.023Z,7.18
2023-03-29T06:28:24.707Z,7.30
2023-03-29T06:30:51.357Z,7.56
2023-03-29T06:33:18.693Z,7.69
2023-03-29T06:35:47.985Z,7.54
2023-03-29T06:38:15.183Z,7.79
2023-03-29T06:40:43.106Z,8.01
2023-03-29T06:43:09.794Z,8.16
2023-03-29T06:45:38.601Z,7.65
2023-03-29T06:48:07.830Z,7.51
2023-03-29T06:50:35.387Z,8.04
2023-03-29T06:53:04.082Z,8.37
2023-03-29T06:55:31.595Z,8.69
2023-03-29T06:58:00.277Z,8.99
2023-03-29T07:00:28.426Z,9.61
2023-03-29T07:02:58.007Z,9.83
2023-03-29T07:05:27.492Z,10.05
2023-03-29T07:07:57.381Z,9.18
2023-03-29T07:10:28.170Z,9.93
2023-03-29T07:12:55.192Z,9.55
2023-03-29T07:15:22.257Z,8.99
2023-03-29T07:17:49.408Z,8.05
2023-03-29T07:20:16.718Z,7.48
2023-03-29T07:22:44.652Z,7.72
2023-03-29T07:25:12.364Z,7.48
2023-03-29T07:27:40.759Z,7.58
2023-03-29T07:30:12.047Z,7.78
2023-03-29T07:32:40.061Z,7.46
2023-03-29T07:35:08.725Z,7.72
2023-03-29T07:37:39.370Z,8.09
2023-03-29T07:40:18.743Z,8.57
2023-03-29T07:42:50.643Z,8.12
2023-03-29T07:45:17.297Z,7.80
2023-03-29T07:47:44.614Z,7.82
2023-03-29T07:50:11.576Z,7.78
2023-03-29T07:52:38.365Z,7.60
2023-03-29T07:55:07.190Z,7.64
2023-03-29T07:57:34.319Z,7.87
2023-03-29T08:00:02.044Z,7.86
2023-03-29T08:02:29.026Z,8.00
2023-03-29T08:04:56.905Z,8.02
2023-03-29T08:07:24.409Z,8.34
2023-03-29T08:09:51.072Z,8.45
2023-03-29T08:12:17.567Z,8.76
2023-03-29T08:14:44.080Z,8.51
2023-03-29T08:17:10.840Z,8.85
2023-03-29T08:19:37.385Z,8.74
2023-03-29T08:22:04.609Z,8.93
2023-03-29T08:24:31.179Z,9.11
2023-03-29T08:26:57.714Z,9.24
2023-03-29T08:29:24.340Z,9.57
2023-03-29T08:31:50.834Z,9.66
2023-03-29T08:34:17.267Z,9.62
2023-03-29T08:36:43.648Z,9.69
2023-03-29T08:39:10.120Z,9.99
2023-03-29T08:41:55.237Z,10.22
2023-03-29T08:44:31.856Z,10.43
2023-03-29T08:47:10.587Z,10.60
2023-03-29T08:49:39.819Z,10.91
2023-03-29T08:52:20.493Z,10.99
2023-03-29T08:54:51.789Z,11.25
2023-03-29T08:57:45.770Z,11.86
2023-03-29T09:00:33.727Z,11.95
2023-03-29T09:03:02.488Z,12.12
2023-03-29T09:05:40.179Z,12.61
2023-03-29T09:08:17.033Z,13.45
2023-03-29T09:10:48.500Z,14.20
2023-03-29T09:13:46.990Z,13.36
2023-03-29T09:16:28.398Z,13.44
2023-03-29T09:19:46.208Z,14.45
2023-03-29T09:22:37.582Z,14.40
2023-03-29T09:25:24.905Z,13.53
2023-03-29T09:28:04.522Z,13.16
2023-03-29T09:30:41.601Z,13.41
2023-03-29T09:33:12.771Z,13.40
2023-03-29T09:35:47.607Z,13.14
2023-03-29T09:38:17.583Z,13.29
2023-03-29T09:40:57.215Z,12.85
2023-03-29T09:43:31.956Z,12.97
2023-03-29T09:46:03.161Z,13.55
2023-03-29T09:48:34.948Z,12.61
2023-03-29T09:51:03.542Z,13.22
2023-03-29T09:53:30.356Z,13.17
2023-03-29T09:55:56.885Z,12.82
2023-03-29T09:58:25.600Z,12.89
2023-03-29T10:00:53.147Z,13.00
2023-03-29T10:03:22.068Z,13.13
2023-03-29T10:05:53.058Z,12.50
2023-03-29T10:08:23.761Z,12.15
2023-03-29T10:10:50.508Z,11.70
2023-03-29T10:13:27.177Z,11.99
2023-03-29T10:16:03.992Z,12.28
2023-03-29T10:18:32.390Z,12.01
2023-03-29T10:21:02.725Z,12.03
2023-03-29T10:23:32.708Z,11.94
2023-03-29T10:25:59.565Z,12.21
2023-03-29T10:28:27.741Z,12.08
2023-03-29T10:30:56.300Z,11.52
2023-03-29T10:33:24.951Z,11.30
2023-03-29T10:35:51.668Z,11.16
2023-03-29T10:38:22.657Z,11.77
2023-03-29T10:40:51.780Z,11.54
2023-03-29T10:43:26.386Z,11.35
2023-03-29T10:46:05.185Z,11.94
2023-03-29T10:48:34.604Z,11.88
2023-03-29T10:51:02.721Z,12.79
2023-03-29T10:53:40.102Z,12.68
2023-03-29T10:56:29.702Z,12.70
2023-03-29T10:59:14.687Z,12.77
2023-03-29T11:02:19.077Z,12.69
2023-03-29T11:05:06.815Z,13.11
2023-03-29T11:07:51.332Z,12.33
2023-03-29T11:10:49.701Z,12.44
2023-03-29T11:13:25.050Z,12.50
2023-03-29T11:16:21.998Z,12.48
2023-03-29T11:18:48.387Z,12.53
2023-03-29T11:21:14.953Z,12.11
2023-03-29T11:24:15.575Z,12.57
2023-03-29T11:27:09.498Z,12.53
2023-03-29T11:29:53.333Z,12.19
2023-03-29T11:32:39.333Z,12.65
2023-03-29T11:35:24.622Z,12.73
2023-03-29T11:38:29.036Z,13.36
2023-03-29T11:41:02.202Z,13.33
2023-03-29T11:43:50.980Z,12.77
2023-03-29T11:46:35.423Z,12.83
2023-03-29T11:49:04.965Z,12.43
2023-03-29T11:52:08.576Z,12.82
2023-03-29T11:54:55.642Z,13.34
2023-03-29T11:57:24.528Z,13.13
2023-03-29T12:00:14.672Z,13.75
2023-03-29T12:02:53.147Z,14.23
2023-03-29T12:05:30.958Z,14.00
2023-03-29T12:08:06.288Z,13.85
2023-03-29T12:10:35.775Z,13.67
2023-03-29T12:13:09.454Z,14.06
2023-03-29T12:15:45.990Z,13.84
2023-03-29T12:18:30.267Z,14.60
2023-03-29T12:21:00.151Z,14.90
2023-03-29T12:23:31.772Z,15.05
2023-03-29T12:26:33.773Z,15.19
2023-03-29T12:29:10.283Z,15.72
2023-03-29T12:31:49.242Z,14.83
2023-03-29T12:34:37.697Z,14.72
2023-03-29T12:37:24.326Z,14.90
2023-03-29T12:39:52.174Z,15.32
2023-03-29T12:42:21.647Z,15.97
2023-03-29T12:44:58.750Z,16.10
2023-03-29T12:47:31.592Z,16.39
2023-03-29T12:50:00.709Z,17.01
2023-03-29T12:52:32.101Z,16.37
2023-03-29T12:55:01.541Z,15.26
2023-03-29T12:57:42.851Z,16.26
2023-03-29T13:00:25.286Z,15.53
2023-03-29T13:03:03.841Z,13.75
2023-03-29T13:05:36.803Z,13.88
2023-03-29T13:08:43.006Z,14.20
2023-03-29T13:11:27.428Z,14.49
2023-03-29T13:13:54.085Z,15.18
2023-03-29T13:16:29.919Z,14.71
2023-03-29T13:19:06.757Z,14.74
2023-03-29T13:22:00.369Z,15.62
2023-03-29T13:24:44.883Z,16.22
2023-03-29T13:27:26.212Z,16.16
2023-03-29T13:30:11.595Z,14.63
2023-03-29T13:32:49.491Z,15.16
2023-03-29T13:35:29.636Z,14.50
2023-03-29T13:38:23.011Z,14.39
2023-03-29T13:40:52.847Z,13.99
2023-03-29T13:43:19.268Z,14.38
2023-03-29T13:46:03.900Z,14.49
2023-03-29T13:48:31.780Z,15.16
2023-03-29T13:51:02.032Z,16.01
2023-03-29T13:53:34.875Z,15.72
2023-03-29T13:56:01.916Z,14.92
2023-03-29T13:58:39.304Z,15.35
2023-03-29T14:01:23.827Z,14.95
2023-03-29T14:03:54.257Z,15.44
2023-03-29T14:06:29.173Z,15.38
2023-03-29T14:08:56.190Z,15.52
2023-03-29T14:11:25.852Z,15.74
2023-03-29T14:14:00.867Z,15.15
2023-03-29T14:16:30.709Z,16.27
2023-03-29T14:19:03.710Z,16.56
2023-03-29T14:21:30.598Z,17.22
2023-03-29T14:24:02.292Z,17.88
2023-03-29T14:26:34.533Z,17.65
2023-03-29T14:29:02.779Z,16.50
2023-03-29T14:31:35.464Z,17.00
2023-03-29T14:34:05.954Z,17.13
2023-03-29T14:36:33.557Z,17.28
2023-03-29T14:39:05.370Z,17.05
2023-03-29T14:41:34.627Z,17.01
2023-03-29T14:44:02.891Z,17.18
2023-03-29T14:46:30.114Z,16.21
2023-03-29T14:48:57.616Z,16.16
2023-03-29T14:51:30.382Z,16.03
2023-03-29T14:54:03.013Z,16.53
2023-03-29T14:56:32.664Z,17.03
2023-03-29T14:59:01.572Z,17.10
2023-03-29T15:01:28.271Z,16.47
2023-03-29T15:04:01.885Z,16.28
2023-03-29T15:06:29.949Z,17.15
2023-03-29T15:09:06.222Z,17.25
2023-03-29T15:11:33.974Z,16.11
2023-03-29T15:14:04.640Z,16.78
2023-03-29T15:16:31.800Z,16.41
2023-03-29T15:19:01.566Z,16.83
2023-03-29T15:21:35.912Z,15.04
2023-03-29T15:24:04.455Z,15.45
2023-03-29T15:26:36.711Z,15.09
2023-03-29T15:29:12.466Z,15.09
2023-03-29T15:31:41.719Z,14.60
2023-03-29T15:34:11.587Z,14.57
2023-03-29T15:36:43.191Z,15.21
2023-03-29T15:39:13.450Z,14.95
2023-03-29T15:41:41.030Z,14.87
2023-03-29T15:44:07.572Z,14.99
2023-03-29T15:46:33.970Z,14.96
2023-03-29T15:49:00.557Z,15.13
2023-03-29T15:51:27.050Z,14.38
2023-03-29T15:53:53.575Z,14.69
2023-03-29T15:56:22.800Z,14.93
2023-03-29T15:58:49.524Z,15.31
2023-03-29T16:01:37.909Z,14.83
2023-03-29T16:04:14.007Z,14.59
2023-03-29T16:06:41.373Z,14.65
2023-03-29T16:09:08.710Z,14.63
2023-03-29T16:11:35.332Z,14.88
2023-03-29T16:14:01.984Z,15.04
2023-03-29T16:16:28.585Z,15.07
2023-03-29T16:18:55.149Z,15.29
2023-03-29T16:21:22.773Z,15.39
2023-03-29T16:23:49.214Z,15.50
2023-03-29T16:26:16.964Z,15.26
2023-03-29T16:28:43.699Z,15.08
2023-03-29T16:31:11.878Z,14.93
2023-03-29T16:33:39.259Z,14.71
2023-03-29T16:36:06.668Z,14.47
2023-03-29T16:38:33.790Z,14.74
2023-03-29T16:41:00.715Z,14.61
2023-03-29T16:43:27.761Z,14.60
2023-03-29T16:45:54.320Z,14.55
2023-03-29T16:48:21.273Z,14.15
2023-03-29T16:50:50.849Z,13.99
2023-03-29T16:53:21.720Z,13.94
2023-03-29T16:55:48.450Z,13.91
2023-03-29T16:58:15.294Z,13.88
2023-03-29T17:00:41.999Z,13.95
2023-03-29T17:03:08.901Z,13.94
2023-03-29T17:05:41.229Z,14.24
2023-03-29T17:08:10.031Z,13.89
2023-03-29T17:10:39.396Z,14.09
2023-03-29T17:13:05.816Z,14.04
2023-03-29T17:15:32.455Z,14.15
2023-03-29T17:17:59.027Z,13.93
2023-03-29T17:20:25.741Z,13.97
2023-03-29T17:22:55.261Z,14.14
2023-03-29T17:25:23.160Z,13.84
2023-03-29T17:27:50.525Z,13.85
2023-03-29T17:30:17.249Z,13.55
2023-03-29T17:32:45.515Z,13.48
2023-03-29T17:35:13.237Z,13.57
2023-03-29T17:37:39.856Z,13.57
2023-03-29T17:40:13.760Z,13.47
2023-03-29T17:42:42.018Z,13.42
2023-03-29T17:45:10.236Z,13.45
2023-03-29T17:47:37.977Z,13.73
2023-03-29T17:50:06.688Z,13.70
2023-03-29T17:52:33.258Z,13.70
2023-03-29T17:54:59.919Z,13.51
2023-03-29T17:57:26.665Z,13.30
2023-03-29T17:59:53.521Z,13.37
2023-03-29T18:02:23.298Z,13.44
2023-03-29T18:04:50.749Z,13.45
2023-03-29T18:07:17.558Z,13.51
2023-03-29T18:09:44.164Z,13.43
2023-03-29T18:12:10.940Z,13.28
2023-03-29T18:14:37.700Z,13.47
2023-03-29T18:17:04.410Z,13.59
2023-03-29T18:19:30.931Z,13.46
2023-03-29T18:21:57.510Z,13.42
2023-03-29T18:24:24.077Z,13.47
2023-03-29T18:26:50.773Z,13.35
2023-03-29T18:29:17.234Z,13.33
2023-03-29T18:31:45.773Z,13.41
2023-03-29T18:34:12.214Z,13.33
2023-03-29T18:36:39.688Z,13.25
2023-03-29T18:39:06.651Z,13.20
2023-03-29T18:41:34.067Z,13.17
2023-03-29T18:44:00.853Z,13.24
2023-03-29T18:46:31.711Z,13.33
2023-03-29T18:48:59.588Z,13.29
2023-03-29T18:51:27.974Z,13.21
2023-03-29T18:53:55.693Z,13.26
2023-03-29T18:56:22.476Z,13.10
2023-03-29T18:58:51.838Z,13.17
2023-03-29T19:01:18.729Z,13.16
2023-03-29T19:03:45.446Z,13.09
2023-03-29T19:06:12.137Z,13.12
2023-03-29T19:08:41.105Z,13.24
2023-03-29T19:11:11.483Z,13.33
2023-03-29T19:13:38.049Z,13.16
2023-03-29T19:16:05.034Z,13.18
2023-03-29T19:18:32.021Z,13.25
2023-03-29T19:20:58.763Z,13.01
2023-03-29T19:23:27.531Z,12.99
2023-03-29T19:26:00.070Z,13.07
2023-03-29T19:28:27.320Z,13.08
2023-03-29T19:30:54.722Z,12.82
2023-03-29T19:33:21.611Z,12.85
2023-03-29T19:35:50.898Z,12.69
2023-03-29T19:38:18.773Z,12.96
2023-03-29T19:40:46.752Z,12.94
2023-03-29T19:43:16.386Z,12.90
2023-03-29T19:45:47.564Z,12.78
2023-03-29T19:48:21.895Z,13.09
2023-03-29T19:50:49.838Z,12.85
2023-03-29T19:53:16.465Z,12.74
2023-03-29T19:55:45.065Z,12.87
2023-03-29T19:58:13.188Z,12.91
2023-03-29T20:00:40.004Z,13.07
2023-03-29T20:03:10.450Z,12.92
2023-03-29T20:05:38.884Z,12.90
2023-03-29T20:08:06.506Z,12.98
2023-03-29T20:10:33.582Z,12.99
2023-03-29T20:13:00.228Z,12.82
2023-03-29T20:15:26.895Z,12.78
2023-03-29T20:17:59.458Z,12.89
2023-03-29T20:20:27.448Z,12.91
2023-03-29T20:22:58.042Z,12.75
2023-03-29T20:25:24.938Z,12.82
2023-03-29T20:27:51.636Z,12.64
2023-03-29T20:30:18.374Z,12.77
2023-03-29T20:32:44.988Z,12.74
2023-03-29T20:35:11.690Z,12.93
2023-03-29T20:37:38.103Z,12.60
2023-03-29T20:40:05.604Z,12.56
2023-03-29T20:42:34.268Z,12.57
2023-03-29T20:45:01.370Z,12.57
2023-03-29T20:47:29.419Z,12.46
2023-03-29T20:49:56.801Z,12.44
2023-03-29T20:52:24.223Z,12.46
2023-03-29T20:54:51.073Z,12.45
2023-03-29T20:57:20.585Z,12.21
2023-03-29T20:59:48.920Z,12.04
2023-03-29T21:02:20.733Z,11.71
2023-03-29T21:04:51.903Z,11.98
2023-03-29T21:07:20.046Z,12.07
2023-03-29T21:09:48.361Z,12.24
2023-03-29T21:12:14.826Z,12.29
2023-03-29T21:14:41.643Z,12.35
2023-03-29T21:17:09.358Z,12.59
2023-03-29T21:19:37.944Z,12.71
2023-03-29T21:22:04.975Z,12.93
2023-03-29T21:24:33.050Z,13.04
2023-03-29T21:26:59.890Z,13.07
2023-03-29T21:29:26.382Z,13.03
2023-03-29T21:31:53.019Z,13.09
2023-03-29T21:34:19.514Z,13.27
2023-03-29T21:36:45.931Z,13.40
2023-03-29T21:39:12.675Z,13.50
2023-03-29T21:41:39.099Z,13.41
2023-03-29T21:44:05.745Z,13.33
2023-03-29T21:46:32.235Z,13.33
2023-03-29T21:48:58.837Z,13.45
2023-03-29T21:51:25.634Z,13.36
2023-03-29T21:53:52.123Z,13.20
2023-03-29T21:56:18.586Z,13.07
2023-03-29T21:58:45.107Z,13.06
2023-03-29T22:01:11.619Z,12.94
2023-03-29T22:03:38.500Z,12.93
2023-03-29T22:06:10.552Z,12.91
2023-03-29T22:08:38.854Z,13.36
2023-03-29T22:11:10.978Z,13.50
2023-03-29T22:13:37.778Z,13.54
2023-03-29T22:16:05.284Z,13.77
2023-03-29T22:18:43.545Z,14.05
2023-03-29T22:21:13.854Z,14.22
2023-03-29T22:23:41.646Z,14.29
2023-03-29T22:26:09.973Z,14.35
2023-03-29T22:28:37.268Z,14.44
2023-03-29T22:31:09.438Z,14.41
2023-03-29T22:33:36.741Z,14.48
2023-03-29T22:36:11.701Z,14.50
2023-03-29T22:38:38.495Z,14.55
2023-03-29T22:41:05.265Z,14.55
2023-03-29T22:43:32.043Z,14.53
2023-03-29T22:45:58.536Z,14.66
2023-03-29T22:48:25.110Z,14.65
2023-03-29T22:50:51.576Z,14.72
2023-03-29T22:53:17.984Z,14.68
2023-03-29T22:55:45.332Z,14.68
2023-03-29T22:58:12.087Z,14.69
2023-03-29T23:00:38.660Z,14.70
2023-03-29T23:03:06.477Z,14.76
2023-03-29T23:05:33.513Z,14.72
2023-03-29T23:08:00.238Z,14.72
2023-03-29T23:10:28.948Z,14.68
2023-03-29T23:13:08.559Z,14.74
2023-03-29T23:15:42.761Z,14.69
2023-03-29T23:18:13.074Z,14.68
2023-03-29T23:20:40.663Z,14.61
2023-03-29T23:23:07.404Z,14.54
2023-03-29T23:25:34.048Z,14.45
2023-03-29T23:28:00.682Z,14.32
2023-03-29T23:30:27.436Z,14.37
2023-03-29T23:32:53.851Z,14.40
2023-03-29T23:35:21.119Z,14.33
2023-03-29T23:37:47.782Z,14.30
2023-03-29T23:40:15.503Z,14.27
2023-03-29T23:42:44.511Z,14.29
2023-03-29T23:45:14.400Z,14.27
2023-03-29T23:47:42.510Z,14.19
2023-03-29T23:50:11.881Z,14.24
2023-03-29T23:52:38.252Z,14.24
2023-03-29T23:55:05.048Z,14.27
2023-03-29T23:57:34.853Z,14.24
